Clare Christine — V2DT7 — position and weather

sailwx.info

Track history (hours):
 
Tides and Currents Weather Stations Pressure Air Temp Water Temp Dewpoint Dewpoint Depression Visibility Wind Speed Wind Dir Waves Ship Positions

Clare Christine

Last reported at 2014-Jul-23 08:31 UTC. Time now 2014-Jul-23 19:46 UTC.
Position N 53°54' E 014°16'.

Length 89 m; draft 3.3 m.

Type: Cargo ship. MMSI: 305379000.

Date/timePositionNaut miles runAvg speedWind from/ knotsBaromVisibWave heightAir tempDewpointWater temp
2014-Jul-23 08:31N 53°54' E 014°16'0 0.0
2014-Jul-23 07:31N 53°54' E 014°16'0 0.0
2014-Jul-23 06:31N 53°54' E 014°16'0 0.0
2014-Jul-23 05:31N 53°54' E 014°16'0 0.0
2014-Jul-23 04:31N 53°54' E 014°16'0 0.0
2014-Jul-23 03:31N 53°54' E 014°16'0 0.0
2014-Jul-23 02:31N 53°54' E 014°16'0 0.0
2014-Jul-23 01:31N 53°54' E 014°16'0 0.0
2014-Jul-23 00:31N 53°54' E 014°16'0 0.0
2014-Jul-22 23:31N 53°54' E 014°16'0 0.0
2014-Jul-22 22:31N 53°54' E 014°16'0 0.0
2014-Jul-22 21:31N 53°54' E 014°16'0 0.0
2014-Jul-22 20:31N 53°54' E 014°16'0 0.0
2014-Jul-22 19:31N 53°54' E 014°16'1 0.9
2014-Jul-22 18:33N 53°53' E 014°16'8 8.0
2014-Jul-22 17:33N 53°46' E 014°24'9 9.4
2014-Jul-22 16:33N 53°39' E 014°34'9 9.4
2014-Jul-22 15:33N 53°29' E 014°37'4 3.8
2014-Jul-22 14:33N 53°26' E 014°35'0 0.0
2014-Jul-22 13:33N 53°26' E 014°35'0 0.0
2014-Jul-22 12:33N 53°26' E 014°35'0 0.0
2014-Jul-22 11:33N 53°26' E 014°35'0 0.0
2014-Jul-22 10:33N 53°26' E 014°35'0 0.0
2014-Jul-22 09:33N 53°26' E 014°35'0 0.0
2014-Jul-22 08:33N 53°26' E 014°35'0 0.0
2014-Jul-22 07:33N 53°26' E 014°35'0 0.0
2014-Jul-22 06:33N 53°26' E 014°35'0 0.0
2014-Jul-22 05:33N 53°26' E 014°35'0 0.0
2014-Jul-22 04:33N 53°26' E 014°35'0 0.0
2014-Jul-22 03:33N 53°26' E 014°35'0 0.0
2014-Jul-22 02:33N 53°26' E 014°35'0 0.0
2014-Jul-22 01:33N 53°26' E 014°35'0 0.0
2014-Jul-22 00:33N 53°26' E 014°35'0 0.0
2014-Jul-21 23:30N 53°26' E 014°35'0 0.0
2014-Jul-21 22:33N 53°26' E 014°35'0 0.0
2014-Jul-21 21:33N 53°26' E 014°35'0 0.0
2014-Jul-21 20:33N 53°26' E 014°35'0 0.0
2014-Jul-21 20:18N 53°26' E 014°35'0 0.0
2014-Jul-21 19:33N 53°26' E 014°35'1 0.5
2014-Jul-21 18:33N 53°26' E 014°35'6 5.8
2014-Jul-21 17:33N 53°32' E 014°38'8 8.2
2014-Jul-21 16:33N 53°39' E 014°32'10 9.6
2014-Jul-21 15:33N 53°47' E 014°22'8 7.5
2014-Jul-21 14:33N 53°53' E 014°16'7 7.1
2014-Jul-21 13:33N 54°00' E 014°19'6 6.2
2014-Jul-21 12:33N 54°04' E 014°28'8 7.9
2014-Jul-21 11:33N 54°09' E 014°38'17 8.7
2014-Jul-21 09:33N 54°22' E 014°58'9 8.7
2014-Jul-21 08:33N 54°29' E 015°08'9 8.9
2014-Jul-21 07:33N 54°35' E 015°19'9 9.3
2014-Jul-21 06:33N 54°41' E 015°30'10 9.7
2014-Jul-21 05:33N 54°48' E 015°42'10 9.7
2014-Jul-21 04:30N 54°56' E 015°54'9 9.8
2014-Jul-21 03:33N 55°03' E 016°05'11 9.7
2014-Jul-21 02:26N 55°11' E 016°17'9 9.7
2014-Jul-21 01:33N 55°19' E 016°25'10 9.8
2014-Jul-21 00:33N 55°26' E 016°37'10 9.8
2014-Jul-20 23:33N 55°33' E 016°48'10 9.8
2014-Jul-20 22:33N 55°39' E 017°02'10 9.9
2014-Jul-20 21:33N 55°46' E 017°14'8 8.5
2014-Jul-20 20:33N 55°54' E 017°18'9 9.1
2014-Jul-20 19:33N 55°58' E 017°33'1010.2
2014-Jul-20 18:33N 56°02' E 017°50'1010.3
2014-Jul-20 17:33N 56°08' E 018°05'1010.3
2014-Jul-20 16:33N 56°13' E 018°21'1010.1
2014-Jul-20 15:33N 56°19' E 018°36'10 9.8
2014-Jul-20 14:33N 56°26' E 018°48'1010.2
2014-Jul-20 13:33N 56°35' E 018°57'1010.3
2014-Jul-20 12:33N 56°44' E 019°05'1010.3
2014-Jul-20 11:33N 56°53' E 019°13'1110.5
2014-Jul-20 10:33N 57°03' E 019°22'4210.5
2014-Jul-20 06:32N 57°41' E 019°55'8510.5
2014-Jul-19 22:25N 58°55' E 021°15'69 9.9
2014-Jul-19 15:25N 59°36' E 023°04'910.4
2014-Jul-19 14:33N 59°39' E 023°21'1110.2
2014-Jul-19 13:29N 59°42' E 023°41'910.1
2014-Jul-19 12:33N 59°45' E 023°59'1110.5
2014-Jul-19 11:32N 59°47' E 024°20'1110.5
2014-Jul-19 10:31N 59°49' E 024°41'1010.2
2014-Jul-19 09:30N 59°51' E 025°01'1010.5
2014-Jul-19 08:33N 59°53' E 025°21'1110.7
2014-Jul-19 07:33N 59°55' E 025°42'1010.3
2014-Jul-19 06:33N 59°58' E 026°02'1010.3
2014-Jul-19 05:33N 60°00' E 026°22'9 9.4
2014-Jul-19 04:34N 60°01' E 026°40'1010.0
2014-Jul-19 03:33N 59°59' E 027°00'1010.0
2014-Jul-19 02:33N 60°04' E 027°18'1110.3
2014-Jul-19 01:28N 60°10' E 027°37'78 9.8
2014-Jul-18 17:32N 59°54' E 030°09'2 1.6
2014-Jul-18 16:27N 59°53' E 030°12'0 0.0
2014-Jul-18 15:30N 59°53' E 030°12'0 0.0
2014-Jul-18 14:24N 59°53' E 030°12'0 0.0
2014-Jul-17 07:18N 59°53' E 030°12'0 0.0
2014-Jul-17 06:33N 59°53' E 030°12'0 0.0
2014-Jul-17 05:30N 59°53' E 030°12'0 0.1
2014-Jul-17 03:27N 59°53' E 030°12'73 1.5
2014-Jul-15 02:33N 60°10' E 027°50'1010.2
2014-Jul-15 01:33N 60°06' E 027°32'1110.7
2014-Jul-15 00:33N 60°01' E 027°13'1010.0
2014-Jul-14 23:31N 59°58' E 026°53'1010.3
2014-Jul-14 22:33N 59°59' E 026°33'1110.3
2014-Jul-14 21:28N 59°56' E 026°11'1010.3
2014-Jul-14 20:31N 59°52' E 025°53'1210.1
2014-Jul-14 19:17N 59°50' E 025°29'2010.2
2014-Jul-14 17:18N 59°46' E 024°50'8 9.8
2014-Jul-14 16:27N 59°44' E 024°34'9 9.9
2014-Jul-14 15:33N 59°42' E 024°17'10 9.8
2014-Jul-14 14:30N 59°38' E 023°57'9 9.1
2014-Jul-14 13:33N 59°36' E 023°41'9 9.2
2014-Jul-14 12:33N 59°33' E 023°24'9 9.4
2014-Jul-14 11:33N 59°30' E 023°06'  
Track history (hours):
 
Tides and Currents Weather Stations Pressure Air Temp Water Temp Dewpoint Dewpoint Depression Visibility Wind Speed Wind Dir Waves Ship Positions

Clare Christine

Last reported at 2014-Jul-23 08:31 UTC. Time now 2014-Jul-23 19:46 UTC.
Position N 53°54' E 014°16'.

Length 89 m; draft 3.3 m.

Type: Cargo ship. MMSI: 305379000.

Date/timePositionNaut miles runAvg speedWind from/ knotsBaromVisibWave heightAir tempDewpointWater temp
2014-Jul-23 08:31N 53°54' E 014°16'0 0.0
2014-Jul-23 07:31N 53°54' E 014°16'0 0.0
2014-Jul-23 06:31N 53°54' E 014°16'0 0.0
2014-Jul-23 05:31N 53°54' E 014°16'0 0.0
2014-Jul-23 04:31N 53°54' E 014°16'0 0.0
2014-Jul-23 03:31N 53°54' E 014°16'0 0.0
2014-Jul-23 02:31N 53°54' E 014°16'0 0.0
2014-Jul-23 01:31N 53°54' E 014°16'0 0.0
2014-Jul-23 00:31N 53°54' E 014°16'0 0.0
2014-Jul-22 23:31N 53°54' E 014°16'0 0.0
2014-Jul-22 22:31N 53°54' E 014°16'0 0.0
2014-Jul-22 21:31N 53°54' E 014°16'0 0.0
2014-Jul-22 20:31N 53°54' E 014°16'0 0.0
2014-Jul-22 19:31N 53°54' E 014°16'1 0.9
2014-Jul-22 18:33N 53°53' E 014°16'8 8.0
2014-Jul-22 17:33N 53°46' E 014°24'9 9.4
2014-Jul-22 16:33N 53°39' E 014°34'9 9.4
2014-Jul-22 15:33N 53°29' E 014°37'4 3.8
2014-Jul-22 14:33N 53°26' E 014°35'0 0.0
2014-Jul-22 13:33N 53°26' E 014°35'0 0.0
2014-Jul-22 12:33N 53°26' E 014°35'0 0.0
2014-Jul-22 11:33N 53°26' E 014°35'0 0.0
2014-Jul-22 10:33N 53°26' E 014°35'0 0.0
2014-Jul-22 09:33N 53°26' E 014°35'0 0.0
2014-Jul-22 08:33N 53°26' E 014°35'0 0.0
2014-Jul-22 07:33N 53°26' E 014°35'0 0.0
2014-Jul-22 06:33N 53°26' E 014°35'0 0.0
2014-Jul-22 05:33N 53°26' E 014°35'0 0.0
2014-Jul-22 04:33N 53°26' E 014°35'0 0.0
2014-Jul-22 03:33N 53°26' E 014°35'0 0.0
2014-Jul-22 02:33N 53°26' E 014°35'0 0.0
2014-Jul-22 01:33N 53°26' E 014°35'0 0.0
2014-Jul-22 00:33N 53°26' E 014°35'0 0.0
2014-Jul-21 23:30N 53°26' E 014°35'0 0.0
2014-Jul-21 22:33N 53°26' E 014°35'0 0.0
2014-Jul-21 21:33N 53°26' E 014°35'0 0.0
2014-Jul-21 20:33N 53°26' E 014°35'0 0.0
2014-Jul-21 20:18N 53°26' E 014°35'0 0.0
2014-Jul-21 19:33N 53°26' E 014°35'1 0.5
2014-Jul-21 18:33N 53°26' E 014°35'6 5.8
2014-Jul-21 17:33N 53°32' E 014°38'8 8.2
2014-Jul-21 16:33N 53°39' E 014°32'10 9.6
2014-Jul-21 15:33N 53°47' E 014°22'8 7.5
2014-Jul-21 14:33N 53°53' E 014°16'7 7.1
2014-Jul-21 13:33N 54°00' E 014°19'6 6.2
2014-Jul-21 12:33N 54°04' E 014°28'8 7.9
2014-Jul-21 11:33N 54°09' E 014°38'17 8.7
2014-Jul-21 09:33N 54°22' E 014°58'9 8.7
2014-Jul-21 08:33N 54°29' E 015°08'9 8.9
2014-Jul-21 07:33N 54°35' E 015°19'9 9.3
2014-Jul-21 06:33N 54°41' E 015°30'10 9.7
2014-Jul-21 05:33N 54°48' E 015°42'10 9.7
2014-Jul-21 04:30N 54°56' E 015°54'9 9.8
2014-Jul-21 03:33N 55°03' E 016°05'11 9.7
2014-Jul-21 02:26N 55°11' E 016°17'9 9.7
2014-Jul-21 01:33N 55°19' E 016°25'10 9.8
2014-Jul-21 00:33N 55°26' E 016°37'10 9.8
2014-Jul-20 23:33N 55°33' E 016°48'10 9.8
2014-Jul-20 22:33N 55°39' E 017°02'10 9.9
2014-Jul-20 21:33N 55°46' E 017°14'8 8.5
2014-Jul-20 20:33N 55°54' E 017°18'9 9.1
2014-Jul-20 19:33N 55°58' E 017°33'1010.2
2014-Jul-20 18:33N 56°02' E 017°50'1010.3
2014-Jul-20 17:33N 56°08' E 018°05'1010.3
2014-Jul-20 16:33N 56°13' E 018°21'1010.1
2014-Jul-20 15:33N 56°19' E 018°36'10 9.8
2014-Jul-20 14:33N 56°26' E 018°48'1010.2
2014-Jul-20 13:33N 56°35' E 018°57'1010.3
2014-Jul-20 12:33N 56°44' E 019°05'1010.3
2014-Jul-20 11:33N 56°53' E 019°13'1110.5
2014-Jul-20 10:33N 57°03' E 019°22'4210.5
2014-Jul-20 06:32N 57°41' E 019°55'8510.5
2014-Jul-19 22:25N 58°55' E 021°15'69 9.9
2014-Jul-19 15:25N 59°36' E 023°04'910.4
2014-Jul-19 14:33N 59°39' E 023°21'1110.2
2014-Jul-19 13:29N 59°42' E 023°41'910.1
2014-Jul-19 12:33N 59°45' E 023°59'1110.5
2014-Jul-19 11:32N 59°47' E 024°20'1110.5
2014-Jul-19 10:31N 59°49' E 024°41'1010.2
2014-Jul-19 09:30N 59°51' E 025°01'1010.5
2014-Jul-19 08:33N 59°53' E 025°21'1110.7
2014-Jul-19 07:33N 59°55' E 025°42'1010.3
2014-Jul-19 06:33N 59°58' E 026°02'1010.3
2014-Jul-19 05:33N 60°00' E 026°22'9 9.4
2014-Jul-19 04:34N 60°01' E 026°40'1010.0
2014-Jul-19 03:33N 59°59' E 027°00'1010.0
2014-Jul-19 02:33N 60°04' E 027°18'1110.3
2014-Jul-19 01:28N 60°10' E 027°37'78 9.8
2014-Jul-18 17:32N 59°54' E 030°09'2 1.6
2014-Jul-18 16:27N 59°53' E 030°12'0 0.0
2014-Jul-18 15:30N 59°53' E 030°12'0 0.0
2014-Jul-18 14:24N 59°53' E 030°12'0 0.0
2014-Jul-17 07:18N 59°53' E 030°12'0 0.0
2014-Jul-17 06:33N 59°53' E 030°12'0 0.0
2014-Jul-17 05:30N 59°53' E 030°12'0 0.1
2014-Jul-17 03:27N 59°53' E 030°12'73 1.5
2014-Jul-15 02:33N 60°10' E 027°50'1010.2
2014-Jul-15 01:33N 60°06' E 027°32'1110.7
2014-Jul-15 00:33N 60°01' E 027°13'1010.0
2014-Jul-14 23:31N 59°58' E 026°53'1010.3
2014-Jul-14 22:33N 59°59' E 026°33'1110.3
2014-Jul-14 21:28N 59°56' E 026°11'1010.3
2014-Jul-14 20:31N 59°52' E 025°53'1210.1
2014-Jul-14 19:17N 59°50' E 025°29'2010.2
2014-Jul-14 17:18N 59°46' E 024°50'8 9.8
2014-Jul-14 16:27N 59°44' E 024°34'9 9.9
2014-Jul-14 15:33N 59°42' E 024°17'10 9.8
2014-Jul-14 14:30N 59°38' E 023°57'9 9.1
2014-Jul-14 13:33N 59°36' E 023°41'9 9.2
2014-Jul-14 12:33N 59°33' E 023°24'9 9.4
2014-Jul-14 11:33N 59°30' E 023°06'  

Dump ship's entire track history